createdAt,value
2024-04-08T00:01:12.676Z,97.00
2024-04-08T00:03:40.080Z,97.00
2024-04-08T00:06:07.426Z,97.00
2024-04-08T00:08:34.626Z,97.10
2024-04-08T00:11:11.142Z,97.10
2024-04-08T00:13:41.099Z,97.00
2024-04-08T00:16:08.416Z,97.40
2024-04-08T00:18:35.574Z,97.90
2024-04-08T00:21:07.075Z,97.90
2024-04-08T00:23:34.359Z,98.10
2024-04-08T00:26:05.688Z,98.20
2024-04-08T00:28:35.235Z,98.10
2024-04-08T00:31:04.063Z,98.00
2024-04-08T00:33:35.349Z,97.90
2024-04-08T00:36:03.259Z,98.20
2024-04-08T00:38:30.544Z,98.40
2024-04-08T00:41:04.026Z,99.30
2024-04-08T00:43:31.617Z,98.70
2024-04-08T00:45:58.834Z,99.20
2024-04-08T00:48:27.195Z,98.40
2024-04-08T00:50:55.447Z,97.80
2024-04-08T00:53:23.855Z,98.30
2024-04-08T00:55:54.559Z,98.40
2024-04-08T00:58:22.612Z,98.40
2024-04-08T01:00:51.431Z,98.40
2024-04-08T01:03:18.883Z,98.40
2024-04-08T01:05:51.094Z,96.80
2024-04-08T01:08:18.376Z,96.70
2024-04-08T01:10:46.220Z,96.60
2024-04-08T01:13:13.552Z,96.90
2024-04-08T01:15:40.856Z,97.30
2024-04-08T01:18:08.155Z,97.20
2024-04-08T01:20:35.357Z,96.40
2024-04-08T01:23:04.326Z,96.50
2024-04-08T01:25:31.603Z,96.70
2024-04-08T01:27:59.023Z,97.00
2024-04-08T01:30:26.186Z,97.50
2024-04-08T01:32:53.392Z,98.00
2024-04-08T01:35:20.589Z,97.90
2024-04-08T01:37:48.037Z,97.80
2024-04-08T01:40:15.433Z,98.30
2024-04-08T01:42:43.374Z,98.10
2024-04-08T01:45:10.716Z,98.60
2024-04-08T01:47:37.955Z,99.40
2024-04-08T01:50:06.788Z,99.90
2024-04-08T01:52:33.946Z,99.90
2024-04-08T01:55:01.197Z,99.90
2024-04-08T01:57:29.172Z,99.90
2024-04-08T01:59:57.071Z,99.90
2024-04-08T02:02:24.331Z,99.90
2024-04-08T02:04:51.984Z,99.90
2024-04-08T02:07:19.450Z,99.90
2024-04-08T02:09:46.657Z,99.90
2024-04-08T02:12:13.849Z,99.90
2024-04-08T02:14:42.244Z,99.90
2024-04-08T02:17:09.503Z,99.90
2024-04-08T02:19:36.879Z,99.90
2024-04-08T02:22:04.289Z,99.90
2024-04-08T02:24:31.650Z,99.90
2024-04-08T02:26:58.979Z,99.90
2024-04-08T02:29:26.575Z,99.90
2024-04-08T02:31:53.876Z,99.90
2024-04-08T02:34:21.422Z,99.90
2024-04-08T02:36:50.530Z,99.90
2024-04-08T02:39:17.877Z,99.90
2024-04-08T02:41:45.230Z,99.90
2024-04-08T02:44:12.456Z,99.90
2024-04-08T02:46:39.619Z,99.90
2024-04-08T02:49:06.839Z,99.90
2024-04-08T02:51:34.011Z,99.90
2024-04-08T02:54:02.310Z,99.90
2024-04-08T02:56:29.858Z,99.90
2024-04-08T02:58:57.261Z,99.90
2024-04-08T03:01:24.740Z,99.90
2024-04-08T03:03:51.954Z,99.90
2024-04-08T03:06:20.234Z,99.90
2024-04-08T03:08:47.572Z,99.90
2024-04-08T03:11:14.821Z,99.90
2024-04-08T03:13:42.258Z,99.90
2024-04-08T03:16:09.574Z,99.90
2024-04-08T03:18:37.630Z,99.90
2024-04-08T03:21:06.156Z,99.90
2024-04-08T03:23:33.612Z,99.90
2024-04-08T03:26:03.733Z,99.90
2024-04-08T03:28:31.467Z,99.90
2024-04-08T03:30:59.341Z,99.90
2024-04-08T03:33:28.200Z,99.90
2024-04-08T03:35:56.758Z,99.90
2024-04-08T03:38:24.091Z,99.90
2024-04-08T03:41:06.007Z,99.90
2024-04-08T03:43:34.039Z,99.90
2024-04-08T03:46:01.913Z,99.90
2024-04-08T03:48:29.207Z,99.90
2024-04-08T03:50:56.597Z,99.90
2024-04-08T03:53:23.808Z,99.90
2024-04-08T03:55:51.167Z,99.90
2024-04-08T03:58:18.671Z,99.90
2024-04-08T04:00:46.093Z,99.90
2024-04-08T04:03:13.504Z,99.90
2024-04-08T04:05:40.876Z,99.90
2024-04-08T04:08:08.471Z,99.90
2024-04-08T04:10:35.846Z,99.90
2024-04-08T04:13:03.208Z,99.90
2024-04-08T04:15:30.423Z,99.90
2024-04-08T04:17:57.846Z,99.90
2024-04-08T04:20:28.463Z,99.90
2024-04-08T04:22:55.872Z,99.90
2024-04-08T04:25:24.480Z,99.90
2024-04-08T04:27:51.749Z,99.90
2024-04-08T04:30:19.108Z,99.90
2024-04-08T04:32:47.329Z,99.90
2024-04-08T04:35:14.694Z,99.90
2024-04-08T04:37:42.020Z,99.90
2024-04-08T04:40:10.410Z,99.90
2024-04-08T04:42:37.640Z,99.90
2024-04-08T04:45:05.820Z,99.90
2024-04-08T04:47:33.081Z,99.90
2024-04-08T04:50:00.453Z,99.90
2024-04-08T04:52:27.669Z,99.90
2024-04-08T04:54:55.190Z,99.90
2024-04-08T04:57:22.699Z,99.90
2024-04-08T04:59:50.392Z,99.90
2024-04-08T05:02:17.788Z,99.90
2024-04-08T05:04:45.795Z,99.90
2024-04-08T05:07:13.034Z,99.90
2024-04-08T05:09:40.438Z,99.90
2024-04-08T05:12:07.867Z,99.90
2024-04-08T05:14:35.427Z,99.90
2024-04-08T05:17:02.756Z,99.90
2024-04-08T05:19:30.092Z,99.90
2024-04-08T05:21:58.699Z,99.90
2024-04-08T05:24:26.067Z,99.90
2024-04-08T05:26:53.248Z,99.90
2024-04-08T05:29:24.537Z,99.90
2024-04-08T05:31:52.027Z,99.90
2024-04-08T05:34:19.354Z,99.90
2024-04-08T05:36:46.529Z,99.90
2024-04-08T05:39:13.716Z,99.90
2024-04-08T05:41:41.050Z,99.90
2024-04-08T05:44:09.091Z,99.90
2024-04-08T05:46:36.449Z,99.90
2024-04-08T05:49:03.662Z,99.90
2024-04-08T05:51:30.967Z,99.90
2024-04-08T05:54:00.300Z,99.90
2024-04-08T05:56:27.705Z,99.90
2024-04-08T05:58:54.956Z,99.90
2024-04-08T06:01:22.264Z,99.90
2024-04-08T06:03:49.544Z,99.90
2024-04-08T06:06:20.317Z,99.90
2024-04-08T06:08:55.858Z,99.90
2024-04-08T06:11:23.339Z,99.90
2024-04-08T06:13:50.763Z,99.90
2024-04-08T06:16:18.063Z,99.90
2024-04-08T06:18:47.646Z,99.90
2024-04-08T06:21:14.933Z,99.90
2024-04-08T06:23:42.153Z,99.90
2024-04-08T06:26:10.518Z,99.90
2024-04-08T06:28:37.721Z,99.90
2024-04-08T06:31:05.178Z,99.90
2024-04-08T06:33:33.876Z,99.90
2024-04-08T06:36:01.125Z,99.90
2024-04-08T06:38:28.452Z,99.90
2024-04-08T06:40:55.756Z,99.90
2024-04-08T06:43:23.011Z,99.90
2024-04-08T06:45:57.604Z,99.90
2024-04-08T06:48:25.442Z,99.90
2024-04-08T06:50:52.731Z,99.90
2024-04-08T06:53:20.121Z,99.90
2024-04-08T06:55:47.438Z,99.90
2024-04-08T06:58:20.423Z,99.90
2024-04-08T07:00:48.688Z,99.50
2024-04-08T07:03:16.470Z,99.20
2024-04-08T07:05:45.449Z,99.00
2024-04-08T07:08:15.654Z,98.80
2024-04-08T07:10:45.893Z,97.50
2024-04-08T07:13:14.238Z,97.60
2024-04-08T07:15:44.099Z,96.50
2024-04-08T07:18:12.014Z,94.80
2024-04-08T07:20:40.246Z,94.80
2024-04-08T07:23:07.584Z,94.40
2024-04-08T07:25:34.807Z,94.40
2024-04-08T07:28:02.340Z,94.50
2024-04-08T07:30:29.888Z,92.50
2024-04-08T07:32:59.360Z,93.40
2024-04-08T07:35:28.135Z,92.00
2024-04-08T07:37:56.699Z,91.90
2024-04-08T07:40:23.963Z,90.60
2024-04-08T07:42:51.164Z,90.90
2024-04-08T07:45:18.446Z,91.60
2024-04-08T07:47:46.905Z,91.60
2024-04-08T07:50:15.325Z,92.00
2024-04-08T07:52:42.790Z,91.90
2024-04-08T07:55:10.926Z,91.10
2024-04-08T07:57:38.219Z,90.70
2024-04-08T08:00:06.067Z,91.50
2024-04-08T08:02:33.370Z,92.30
2024-04-08T08:05:00.663Z,91.60
2024-04-08T08:07:27.916Z,92.30
2024-04-08T08:09:55.125Z,90.90
2024-04-08T08:12:22.386Z,91.30
2024-04-08T08:14:49.639Z,92.40
2024-04-08T08:17:17.297Z,90.90
2024-04-08T08:19:45.415Z,88.20
2024-04-08T08:22:12.869Z,85.70
2024-04-08T08:24:40.074Z,83.80
2024-04-08T08:27:10.070Z,88.20
2024-04-08T08:29:37.365Z,84.40
2024-04-08T08:32:05.251Z,86.40
2024-04-08T08:37:33.733Z,80.40
2024-04-08T08:40:00.899Z,84.60
2024-04-08T08:42:31.063Z,83.10
2024-04-08T08:44:59.005Z,76.60
2024-04-08T08:47:26.362Z,76.80
2024-04-08T08:49:55.328Z,72.60
2024-04-08T08:52:23.108Z,78.40
2024-04-08T08:54:53.832Z,74.70
2024-04-08T08:57:21.586Z,72.40
2024-04-08T08:59:51.711Z,74.70
2024-04-08T09:02:19.139Z,77.00
2024-04-08T09:04:46.375Z,79.40
2024-04-08T09:07:13.587Z,77.70
2024-04-08T09:09:40.778Z,83.70
2024-04-08T09:12:12.326Z,81.30
2024-04-08T09:14:39.870Z,74.00
2024-04-08T09:17:08.342Z,79.40
2024-04-08T09:19:36.487Z,81.50
2024-04-08T09:22:04.820Z,82.50
2024-04-08T09:24:33.757Z,79.10
2024-04-08T09:29:29.182Z,83.90
2024-04-08T09:31:58.131Z,87.00
2024-04-08T09:34:25.950Z,81.60
2024-04-08T09:36:54.512Z,83.50
2024-04-08T09:39:23.706Z,80.70
2024-04-08T09:41:53.016Z,80.00
2024-04-08T09:44:21.244Z,80.90
2024-04-08T09:46:50.109Z,83.90
2024-04-08T09:49:23.534Z,77.50
2024-04-08T09:51:53.918Z,76.40
2024-04-08T09:54:21.861Z,87.00
2024-04-08T09:56:51.819Z,83.80
2024-04-08T09:59:22.724Z,83.40
2024-04-08T10:01:51.064Z,80.70
2024-04-08T10:04:23.010Z,78.10
2024-04-08T10:06:51.020Z,82.10
2024-04-08T10:09:22.819Z,86.70
2024-04-08T10:11:54.565Z,84.20
2024-04-08T10:14:25.405Z,80.60
2024-04-08T10:16:53.533Z,81.20
2024-04-08T10:19:24.221Z,82.00
2024-04-08T10:22:00.203Z,76.70
2024-04-08T10:24:39.497Z,83.60
2024-04-08T10:27:10.174Z,81.20
2024-04-08T10:29:37.786Z,80.90
2024-04-08T10:32:08.309Z,79.50
2024-04-08T10:34:36.877Z,81.20
2024-04-08T10:37:04.178Z,75.70
2024-04-08T10:39:31.612Z,75.10
2024-04-08T10:42:12.670Z,76.90
2024-04-08T10:44:39.974Z,81.00
2024-04-08T10:47:08.767Z,75.60
2024-04-08T10:49:37.385Z,75.50
2024-04-08T10:52:04.854Z,78.10
2024-04-08T10:54:32.812Z,78.80
2024-04-08T10:57:00.675Z,79.40
2024-04-08T10:59:28.031Z,74.20
2024-04-08T11:01:56.508Z,78.80
2024-04-08T11:04:23.893Z,77.10
2024-04-08T11:06:51.392Z,76.90
2024-04-08T11:09:18.988Z,76.90
2024-04-08T11:11:46.365Z,77.60
2024-04-08T11:14:14.968Z,75.50
2024-04-08T11:16:42.190Z,75.70
2024-04-08T11:19:15.276Z,71.50
2024-04-08T11:21:43.414Z,77.10
2024-04-08T11:24:14.428Z,70.00
2024-04-08T11:26:52.652Z,72.60
2024-04-08T11:29:23.738Z,77.20
2024-04-08T11:31:51.144Z,73.20
2024-04-08T11:34:18.342Z,74.60
2024-04-08T11:36:46.126Z,78.70
2024-04-08T11:39:13.371Z,75.70
2024-04-08T11:41:40.668Z,68.50
2024-04-08T11:44:08.621Z,69.30
2024-04-08T11:46:36.474Z,67.60
2024-04-08T11:49:03.976Z,72.70
2024-04-08T11:51:31.264Z,67.70
2024-04-08T11:53:58.434Z,70.80
2024-04-08T11:56:25.655Z,76.90
2024-04-08T11:58:54.631Z,69.10
2024-04-08T12:01:22.625Z,75.30
2024-04-08T12:03:50.039Z,77.70
2024-04-08T12:06:17.541Z,68.80
2024-04-08T12:08:44.882Z,68.40
2024-04-08T12:11:12.956Z,71.00
2024-04-08T12:13:42.307Z,73.00
2024-04-08T12:16:11.888Z,66.40
2024-04-08T12:18:39.296Z,66.10
2024-04-08T12:21:06.659Z,66.00
2024-04-08T12:23:34.002Z,64.60
2024-04-08T12:26:01.308Z,65.00
2024-04-08T12:28:28.549Z,63.20
2024-04-08T12:30:58.752Z,66.00
2024-04-08T12:33:26.465Z,67.50
2024-04-08T12:35:53.855Z,69.70
2024-04-08T12:38:21.225Z,72.90
2024-04-08T12:40:48.626Z,68.20
2024-04-08T12:43:15.889Z,64.70
2024-04-08T12:45:43.447Z,65.40
2024-04-08T12:48:10.912Z,72.10
2024-04-08T12:50:38.555Z,69.60
2024-04-08T12:53:06.118Z,71.50
2024-04-08T12:55:33.330Z,73.50
2024-04-08T12:58:02.001Z,72.50
2024-04-08T13:00:29.694Z,70.40
2024-04-08T13:02:57.128Z,68.30
2024-04-08T13:05:24.303Z,70.00
2024-04-08T13:07:52.180Z,72.90
2024-04-08T13:10:19.497Z,72.20
2024-04-08T13:12:46.827Z,68.00
2024-04-08T13:15:15.401Z,69.90
2024-04-08T13:17:42.683Z,69.10
2024-04-08T13:20:10.484Z,67.00
2024-04-08T13:22:37.757Z,64.50
2024-04-08T13:25:05.397Z,64.40
2024-04-08T13:27:32.629Z,70.10
2024-04-08T13:29:59.866Z,68.20
2024-04-08T13:32:27.221Z,67.10
2024-04-08T13:34:54.438Z,68.60
2024-04-08T13:37:21.873Z,70.40
2024-04-08T13:39:49.169Z,64.10
2024-04-08T13:42:16.409Z,58.20
2024-04-08T13:44:47.825Z,59.50
2024-04-08T13:47:15.854Z,60.00
2024-04-08T13:49:45.536Z,63.90
2024-04-08T13:52:13.182Z,62.40
2024-04-08T13:54:42.299Z,62.30
2024-04-08T13:57:10.884Z,61.60
2024-04-08T13:59:38.179Z,65.20
2024-04-08T14:02:05.744Z,67.10
2024-04-08T14:04:33.042Z,65.50
2024-04-08T14:07:01.576Z,69.50
2024-04-08T14:09:28.857Z,64.90
2024-04-08T14:11:56.089Z,63.10
2024-04-08T14:14:23.332Z,63.20
2024-04-08T14:16:50.583Z,60.50
2024-04-08T14:19:17.982Z,58.70
2024-04-08T14:21:45.178Z,62.20
2024-04-08T14:24:12.491Z,62.70
2024-04-08T14:26:39.910Z,60.50
2024-04-08T14:29:09.883Z,62.60
2024-04-08T14:31:38.645Z,59.70
2024-04-08T14:34:06.000Z,60.60
2024-04-08T14:36:33.414Z,60.00
2024-04-08T14:39:21.866Z,67.90
2024-04-08T14:41:47.816Z,68.00
2024-04-08T14:44:19.403Z,73.30
2024-04-08T14:46:55.871Z,63.20
2024-04-08T14:49:24.383Z,61.70
2024-04-08T14:51:56.278Z,61.60
2024-04-08T14:54:30.332Z,63.50
2024-04-08T14:56:58.092Z,63.10
2024-04-08T14:59:25.433Z,68.20
2024-04-08T15:01:52.657Z,65.20
2024-04-08T15:04:19.898Z,66.00
2024-04-08T15:06:47.079Z,69.60
2024-04-08T15:09:14.685Z,65.80
2024-04-08T15:11:42.362Z,67.50
2024-04-08T15:14:10.364Z,68.00
2024-04-08T15:16:37.588Z,69.70
2024-04-08T15:19:05.170Z,62.50
2024-04-08T15:21:33.594Z,74.10
2024-04-08T15:24:01.040Z,76.00
2024-04-08T15:26:28.223Z,67.80
2024-04-08T15:28:55.545Z,72.80
2024-04-08T15:31:22.718Z,71.90
2024-04-08T15:33:50.226Z,75.90
2024-04-08T15:36:17.576Z,75.30
2024-04-08T15:38:44.817Z,76.20
2024-04-08T15:41:12.845Z,74.30
2024-04-08T15:43:40.117Z,75.90
2024-04-08T15:46:07.529Z,78.00
2024-04-08T15:48:36.513Z,80.70
2024-04-08T15:51:04.753Z,77.30
2024-04-08T15:53:33.793Z,74.00
2024-04-08T15:56:03.710Z,74.40
2024-04-08T15:58:30.933Z,78.30
2024-04-08T16:01:00.831Z,80.10
2024-04-08T16:03:29.077Z,81.20
2024-04-08T16:06:13.397Z,81.10
2024-04-08T16:08:43.712Z,81.90
2024-04-08T16:11:18.231Z,83.10
2024-04-08T16:13:46.385Z,83.10
2024-04-08T16:16:13.760Z,83.90
2024-04-08T16:18:42.531Z,84.40
2024-04-08T16:21:09.890Z,85.10
2024-04-08T16:23:52.986Z,85.80
2024-04-08T16:26:23.929Z,85.60
2024-04-08T16:28:59.062Z,84.60
2024-04-08T16:31:31.934Z,83.30
2024-04-08T16:34:00.383Z,85.10
2024-04-08T16:36:30.146Z,86.90
2024-04-08T16:38:58.874Z,88.50
2024-04-08T16:41:26.553Z,88.00
2024-04-08T16:43:53.933Z,89.60
2024-04-08T16:46:24.522Z,90.00
2024-04-08T16:48:52.204Z,89.50
2024-04-08T16:51:21.832Z,88.60
2024-04-08T16:53:51.526Z,86.70
2024-04-08T16:56:19.298Z,89.00
2024-04-08T16:58:47.168Z,88.60
2024-04-08T17:01:14.461Z,89.30
2024-04-08T17:03:42.135Z,90.00
2024-04-08T17:06:10.318Z,90.30
2024-04-08T17:08:37.691Z,90.70
2024-04-08T17:11:05.410Z,91.10
2024-04-08T17:13:37.972Z,91.30
2024-04-08T17:16:06.062Z,91.90
2024-04-08T17:18:34.135Z,91.90
2024-04-08T17:21:05.201Z,91.30
2024-04-08T17:23:33.626Z,91.90
2024-04-08T17:26:01.540Z,91.70
2024-04-08T17:28:29.384Z,92.10
2024-04-08T17:31:02.837Z,92.10
2024-04-08T17:33:32.222Z,92.60
2024-04-08T17:36:01.040Z,92.50
2024-04-08T17:38:29.812Z,92.30
2024-04-08T17:41:04.670Z,91.60
2024-04-08T17:43:34.436Z,91.60
2024-04-08T17:46:03.781Z,92.40
2024-04-08T17:48:35.958Z,91.80
2024-04-08T17:51:05.394Z,90.90
2024-04-08T17:53:34.132Z,91.60
2024-04-08T17:56:03.580Z,92.50
2024-04-08T17:58:32.786Z,93.00
2024-04-08T18:01:05.282Z,92.90
2024-04-08T18:03:33.015Z,93.20
2024-04-08T18:06:19.184Z,93.30
2024-04-08T18:08:51.126Z,92.40
2024-04-08T18:11:19.728Z,91.90
2024-04-08T18:13:47.475Z,92.30
2024-04-08T18:16:19.986Z,92.10
2024-04-08T18:18:53.028Z,92.00
2024-04-08T18:21:21.763Z,93.00
2024-04-08T18:23:50.385Z,93.60
2024-04-08T18:26:22.199Z,94.50
2024-04-08T18:28:52.333Z,94.40
2024-04-08T18:31:20.630Z,94.70
2024-04-08T18:33:50.039Z,95.40
2024-04-08T18:36:21.055Z,94.60
2024-04-08T18:38:51.170Z,95.00
2024-04-08T18:41:22.431Z,95.30
2024-04-08T18:43:50.838Z,96.00
2024-04-08T18:46:22.552Z,96.40
2024-04-08T18:48:50.447Z,96.40
2024-04-08T18:51:18.112Z,96.20
2024-04-08T18:53:46.560Z,95.90
2024-04-08T18:56:14.228Z,95.40
2024-04-08T18:58:41.563Z,95.30
2024-04-08T19:01:16.791Z,94.50
2024-04-08T19:03:49.121Z,94.60
2024-04-08T19:06:16.946Z,94.40
2024-04-08T19:08:44.465Z,94.30
2024-04-08T19:11:11.833Z,94.20
2024-04-08T19:13:39.178Z,94.60
2024-04-08T19:16:07.120Z,95.00
2024-04-08T19:18:35.855Z,95.50
2024-04-08T19:21:09.705Z,95.80
2024-04-08T19:23:37.826Z,95.80
2024-04-08T19:26:05.374Z,96.50
2024-04-08T19:28:34.013Z,96.10
2024-04-08T19:31:01.248Z,96.10
2024-04-08T19:33:28.806Z,96.50
2024-04-08T19:35:59.525Z,97.20
2024-04-08T19:38:27.260Z,97.90
2024-04-08T19:41:06.906Z,98.10
2024-04-08T19:43:34.252Z,98.40
2024-04-08T19:46:13.425Z,97.90
2024-04-08T19:48:43.142Z,97.70
2024-04-08T19:51:19.684Z,97.70
2024-04-08T19:53:50.568Z,97.60
2024-04-08T19:56:20.671Z,97.60
2024-04-08T19:58:48.571Z,96.80
2024-04-08T20:01:16.103Z,96.70
2024-04-08T20:03:44.096Z,97.40
2024-04-08T20:06:11.840Z,97.60
2024-04-08T20:08:40.488Z,97.60
2024-04-08T20:11:12.354Z,97.60
2024-04-08T20:13:44.293Z,97.60
2024-04-08T20:16:22.380Z,97.80
2024-04-08T20:18:51.292Z,97.70
2024-04-08T20:21:22.629Z,97.60
2024-04-08T20:23:50.545Z,97.80
2024-04-08T20:26:18.361Z,97.50
2024-04-08T20:28:45.553Z,97.80
2024-04-08T20:31:13.088Z,98.00
2024-04-08T20:33:40.733Z,97.80
2024-04-08T20:36:09.895Z,98.00
2024-04-08T20:38:37.884Z,97.80
2024-04-08T20:41:11.889Z,97.80
2024-04-08T20:43:40.906Z,97.90
2024-04-08T20:46:09.324Z,97.70
2024-04-08T20:48:37.102Z,97.60
2024-04-08T20:51:06.395Z,97.90
2024-04-08T20:53:34.450Z,97.80
2024-04-08T20:56:07.241Z,98.10
2024-04-08T20:58:35.038Z,98.50
2024-04-08T21:01:09.838Z,99.00
2024-04-08T21:03:38.376Z,99.50
2024-04-08T21:06:10.088Z,99.50
2024-04-08T21:08:44.343Z,99.40
2024-04-08T21:11:13.679Z,99.50
2024-04-08T21:13:54.789Z,99.50
2024-04-08T21:16:22.015Z,99.40
2024-04-08T21:18:49.343Z,99.20
2024-04-08T21:21:16.571Z,99.20
2024-04-08T21:23:43.930Z,99.20
2024-04-08T21:26:19.307Z,99.10
2024-04-08T21:28:48.897Z,98.80
2024-04-08T21:31:16.762Z,98.90
2024-04-08T21:33:48.124Z,99.00
2024-04-08T21:36:16.470Z,99.10
2024-04-08T21:38:43.746Z,99.40
2024-04-08T21:41:12.115Z,99.30
2024-04-08T21:43:41.380Z,98.90
2024-04-08T21:46:10.200Z,99.40
2024-04-08T21:48:38.284Z,99.70
2024-04-08T21:51:07.724Z,99.60
2024-04-08T21:53:35.273Z,99.80
2024-04-08T21:56:04.423Z,99.90
2024-04-08T21:58:35.696Z,99.80
2024-04-08T22:01:07.824Z,99.90
2024-04-08T22:03:35.920Z,99.90
2024-04-08T22:06:05.137Z,99.90
2024-04-08T22:08:33.865Z,99.90
2024-04-08T22:11:01.594Z,99.90
2024-04-08T22:13:28.839Z,99.90
2024-04-08T22:15:56.180Z,99.90
2024-04-08T22:18:25.337Z,99.90
2024-04-08T22:20:53.571Z,99.90
2024-04-08T22:23:21.315Z,99.90
2024-04-08T22:25:48.643Z,99.90
2024-04-08T22:28:15.956Z,99.90
2024-04-08T22:30:43.215Z,99.90
2024-04-08T22:33:10.629Z,99.90
2024-04-08T22:35:38.263Z,99.90
2024-04-08T22:38:05.541Z,99.90
2024-04-08T22:40:32.798Z,99.90
2024-04-08T22:43:00.030Z,99.90
2024-04-08T22:45:27.332Z,99.90
2024-04-08T22:47:54.800Z,99.90
2024-04-08T22:50:22.337Z,99.90
2024-04-08T22:52:49.720Z,99.90
2024-04-08T22:55:17.120Z,99.90
2024-04-08T22:57:45.033Z,99.90
2024-04-08T23:00:13.812Z,99.90
2024-04-08T23:02:42.214Z,99.90
2024-04-08T23:05:10.419Z,99.90
2024-04-08T23:07:37.930Z,99.90
2024-04-08T23:10:06.238Z,99.90
2024-04-08T23:12:33.809Z,99.90
2024-04-08T23:15:01.486Z,99.90
2024-04-08T23:17:29.236Z,99.90
2024-04-08T23:19:56.635Z,99.90
2024-04-08T23:22:23.926Z,99.90
2024-04-08T23:24:51.118Z,99.90
2024-04-08T23:27:18.758Z,99.90
2024-04-08T23:29:45.999Z,99.90
2024-04-08T23:32:13.187Z,99.90
2024-04-08T23:34:40.704Z,99.90
2024-04-08T23:37:08.548Z,99.90
2024-04-08T23:39:35.907Z,99.90
2024-04-08T23:42:03.457Z,99.90
2024-04-08T23:44:31.418Z,99.90
2024-04-08T23:46:58.708Z,99.90
2024-04-08T23:49:25.914Z,99.90
2024-04-08T23:51:53.599Z,99.90
2024-04-08T23:54:20.819Z,99.90
2024-04-08T23:56:48.172Z,99.90
2024-04-08T23:59:15.329Z,99.90
